sensor_id;sensor_type;location;lat;lon;timestamp;temperature;humidity
46139;DHT22;32398;49.112;8.598;2023-08-12T00:00:54;23.80;72.70
46139;DHT22;32398;49.112;8.598;2023-08-12T00:03:20;23.80;72.80
46139;DHT22;32398;49.112;8.598;2023-08-12T00:05:47;23.80;72.90
46139;DHT22;32398;49.112;8.598;2023-08-12T00:08:13;23.70;72.90
46139;DHT22;32398;49.112;8.598;2023-08-12T00:10:41;23.70;73.10
46139;DHT22;32398;49.112;8.598;2023-08-12T00:13:08;23.70;73.20
46139;DHT22;32398;49.112;8.598;2023-08-12T00:15:35;23.60;73.30
46139;DHT22;32398;49.112;8.598;2023-08-12T00:18:02;23.60;73.30
46139;DHT22;32398;49.112;8.598;2023-08-12T00:20:31;23.60;73.40
46139;DHT22;32398;49.112;8.598;2023-08-12T00:22:58;23.60;73.60
46139;DHT22;32398;49.112;8.598;2023-08-12T00:25:24;23.60;73.70
46139;DHT22;32398;49.112;8.598;2023-08-12T00:27:52;23.50;73.70
46139;DHT22;32398;49.112;8.598;2023-08-12T00:30:19;23.50;73.80
46139;DHT22;32398;49.112;8.598;2023-08-12T00:32:46;23.50;73.90
46139;DHT22;32398;49.112;8.598;2023-08-12T00:35:12;23.40;73.90
46139;DHT22;32398;49.112;8.598;2023-08-12T00:37:39;23.40;74.00
46139;DHT22;32398;49.112;8.598;2023-08-12T00:40:06;23.40;74.10
46139;DHT22;32398;49.112;8.598;2023-08-12T00:42:32;23.40;74.20
46139;DHT22;32398;49.112;8.598;2023-08-12T00:45:00;23.40;74.40
46139;DHT22;32398;49.112;8.598;2023-08-12T00:47:27;23.40;74.30
46139;DHT22;32398;49.112;8.598;2023-08-12T00:49:54;23.30;74.50
46139;DHT22;32398;49.112;8.598;2023-08-12T00:52:23;23.30;74.60
46139;DHT22;32398;49.112;8.598;2023-08-12T00:54:49;23.30;74.70
46139;DHT22;32398;49.112;8.598;2023-08-12T00:57:16;23.20;74.80
46139;DHT22;32398;49.112;8.598;2023-08-12T00:59:43;23.20;74.80
46139;DHT22;32398;49.112;8.598;2023-08-12T01:02:12;23.20;75.00
46139;DHT22;32398;49.112;8.598;2023-08-12T01:04:38;23.20;75.00
46139;DHT22;32398;49.112;8.598;2023-08-12T01:07:05;23.20;75.10
46139;DHT22;32398;49.112;8.598;2023-08-12T01:09:32;23.20;75.20
46139;DHT22;32398;49.112;8.598;2023-08-12T01:12:01;23.10;75.20
46139;DHT22;32398;49.112;8.598;2023-08-12T01:14:39;23.10;75.20
46139;DHT22;32398;49.112;8.598;2023-08-12T01:17:09;23.10;75.30
46139;DHT22;32398;49.112;8.598;2023-08-12T01:19:39;23.10;75.50
46139;DHT22;32398;49.112;8.598;2023-08-12T01:22:07;23.10;75.60
46139;DHT22;32398;49.112;8.598;2023-08-12T01:24:36;23.00;75.60
46139;DHT22;32398;49.112;8.598;2023-08-12T01:27:03;23.10;75.70
46139;DHT22;32398;49.112;8.598;2023-08-12T01:29:30;23.00;75.80
46139;DHT22;32398;49.112;8.598;2023-08-12T01:31:58;23.00;75.70
46139;DHT22;32398;49.112;8.598;2023-08-12T01:34:29;23.00;75.80
46139;DHT22;32398;49.112;8.598;2023-08-12T01:36:59;23.00;75.90
46139;DHT22;32398;49.112;8.598;2023-08-12T01:39:26;23.00;76.00
46139;DHT22;32398;49.112;8.598;2023-08-12T01:41:55;23.00;76.10
46139;DHT22;32398;49.112;8.598;2023-08-12T01:44:22;22.90;76.10
46139;DHT22;32398;49.112;8.598;2023-08-12T01:46:49;22.90;76.10
46139;DHT22;32398;49.112;8.598;2023-08-12T01:49:15;22.90;76.20
46139;DHT22;32398;49.112;8.598;2023-08-12T01:51:42;22.90;76.20
46139;DHT22;32398;49.112;8.598;2023-08-12T01:54:08;22.90;76.30
46139;DHT22;32398;49.112;8.598;2023-08-12T01:56:35;22.90;76.30
46139;DHT22;32398;49.112;8.598;2023-08-12T01:59:03;22.90;76.40
46139;DHT22;32398;49.112;8.598;2023-08-12T02:01:29;22.80;76.40
46139;DHT22;32398;49.112;8.598;2023-08-12T02:03:56;22.80;76.50
46139;DHT22;32398;49.112;8.598;2023-08-12T02:06:22;22.80;76.60
46139;DHT22;32398;49.112;8.598;2023-08-12T02:08:49;22.80;76.60
46139;DHT22;32398;49.112;8.598;2023-08-12T02:11:16;22.80;76.70
46139;DHT22;32398;49.112;8.598;2023-08-12T02:13:42;22.70;76.70
46139;DHT22;32398;49.112;8.598;2023-08-12T02:16:10;22.80;76.80
46139;DHT22;32398;49.112;8.598;2023-08-12T02:18:37;22.70;76.90
46139;DHT22;32398;49.112;8.598;2023-08-12T02:21:03;22.70;76.90
46139;DHT22;32398;49.112;8.598;2023-08-12T02:23:30;22.70;76.90
46139;DHT22;32398;49.112;8.598;2023-08-12T02:25:56;22.70;77.00
46139;DHT22;32398;49.112;8.598;2023-08-12T02:28:23;22.70;77.00
46139;DHT22;32398;49.112;8.598;2023-08-12T02:30:49;22.70;77.20
46139;DHT22;32398;49.112;8.598;2023-08-12T02:33:17;22.60;77.20
46139;DHT22;32398;49.112;8.598;2023-08-12T02:35:44;22.70;77.30
46139;DHT22;32398;49.112;8.598;2023-08-12T02:38:10;22.70;77.30
46139;DHT22;32398;49.112;8.598;2023-08-12T02:40:37;22.60;77.30
46139;DHT22;32398;49.112;8.598;2023-08-12T02:43:03;22.60;77.30
46139;DHT22;32398;49.112;8.598;2023-08-12T02:45:30;22.60;77.40
46139;DHT22;32398;49.112;8.598;2023-08-12T02:47:56;22.60;77.50
46139;DHT22;32398;49.112;8.598;2023-08-12T02:50:24;22.60;77.70
46139;DHT22;32398;49.112;8.598;2023-08-12T02:52:51;22.60;77.90
46139;DHT22;32398;49.112;8.598;2023-08-12T02:55:17;22.50;77.80
46139;DHT22;32398;49.112;8.598;2023-08-12T02:57:44;22.50;77.80
46139;DHT22;32398;49.112;8.598;2023-08-12T03:00:11;22.50;77.80
46139;DHT22;32398;49.112;8.598;2023-08-12T03:02:39;22.50;77.90
46139;DHT22;32398;49.112;8.598;2023-08-12T03:05:08;22.50;77.90
46139;DHT22;32398;49.112;8.598;2023-08-12T03:07:36;22.50;78.10
46139;DHT22;32398;49.112;8.598;2023-08-12T03:10:03;22.50;78.00
46139;DHT22;32398;49.112;8.598;2023-08-12T03:12:29;22.50;78.10
46139;DHT22;32398;49.112;8.598;2023-08-12T03:14:56;22.40;78.10
46139;DHT22;32398;49.112;8.598;2023-08-12T03:17:22;22.40;78.10
46139;DHT22;32398;49.112;8.598;2023-08-12T03:19:49;22.40;78.20
46139;DHT22;32398;49.112;8.598;2023-08-12T03:22:16;22.40;78.30
46139;DHT22;32398;49.112;8.598;2023-08-12T03:24:44;22.40;78.30
46139;DHT22;32398;49.112;8.598;2023-08-12T03:27:11;22.40;79.10
46139;DHT22;32398;49.112;8.598;2023-08-12T03:29:37;22.40;78.50
46139;DHT22;32398;49.112;8.598;2023-08-12T03:32:04;22.40;78.60
46139;DHT22;32398;49.112;8.598;2023-08-12T03:34:30;22.40;78.60
46139;DHT22;32398;49.112;8.598;2023-08-12T03:36:57;22.40;78.70
46139;DHT22;32398;49.112;8.598;2023-08-12T03:39:23;22.30;78.70
46139;DHT22;32398;49.112;8.598;2023-08-12T03:41:51;22.40;78.70
46139;DHT22;32398;49.112;8.598;2023-08-12T03:44:18;22.30;78.80
46139;DHT22;32398;49.112;8.598;2023-08-12T03:46:44;22.40;78.80
46139;DHT22;32398;49.112;8.598;2023-08-12T03:49:11;22.30;78.80
46139;DHT22;32398;49.112;8.598;2023-08-12T03:51:38;22.30;78.90
46139;DHT22;32398;49.112;8.598;2023-08-12T03:54:04;22.30;79.00
46139;DHT22;32398;49.112;8.598;2023-08-12T03:56:31;22.30;79.00
46139;DHT22;32398;49.112;8.598;2023-08-12T03:58:59;22.30;79.20
46139;DHT22;32398;49.112;8.598;2023-08-12T04:01:25;22.30;79.20
46139;DHT22;32398;49.112;8.598;2023-08-12T04:03:52;22.20;79.20
46139;DHT22;32398;49.112;8.598;2023-08-12T04:06:19;22.20;79.30
46139;DHT22;32398;49.112;8.598;2023-08-12T04:08:45;22.20;79.40
46139;DHT22;32398;49.112;8.598;2023-08-12T04:11:12;22.20;79.40
46139;DHT22;32398;49.112;8.598;2023-08-12T04:13:38;22.20;79.40
46139;DHT22;32398;49.112;8.598;2023-08-12T04:16:06;22.10;79.50
46139;DHT22;32398;49.112;8.598;2023-08-12T04:18:33;22.10;79.70
46139;DHT22;32398;49.112;8.598;2023-08-12T04:20:59;22.10;79.90
46139;DHT22;32398;49.112;8.598;2023-08-12T04:23:26;22.10;80.00
46139;DHT22;32398;49.112;8.598;2023-08-12T04:25:53;22.10;80.10
46139;DHT22;32398;49.112;8.598;2023-08-12T04:28:20;22.10;80.20
46139;DHT22;32398;49.112;8.598;2023-08-12T04:30:47;22.20;80.30
46139;DHT22;32398;49.112;8.598;2023-08-12T04:33:17;22.10;80.20
46139;DHT22;32398;49.112;8.598;2023-08-12T04:35:45;22.10;80.30
46139;DHT22;32398;49.112;8.598;2023-08-12T04:38:11;22.10;80.30
46139;DHT22;32398;49.112;8.598;2023-08-12T04:40:38;22.10;80.50
46139;DHT22;32398;49.112;8.598;2023-08-12T04:43:04;22.00;80.20
46139;DHT22;32398;49.112;8.598;2023-08-12T04:45:31;22.10;80.30
46139;DHT22;32398;49.112;8.598;2023-08-12T04:47:58;22.00;80.30
46139;DHT22;32398;49.112;8.598;2023-08-12T04:50:29;22.10;80.30
46139;DHT22;32398;49.112;8.598;2023-08-12T04:52:55;22.00;80.30
46139;DHT22;32398;49.112;8.598;2023-08-12T04:55:22;22.00;80.40
46139;DHT22;32398;49.112;8.598;2023-08-12T04:57:50;22.00;80.30
46139;DHT22;32398;49.112;8.598;2023-08-12T05:00:17;22.00;80.70
46139;DHT22;32398;49.112;8.598;2023-08-12T05:02:43;22.00;80.50
46139;DHT22;32398;49.112;8.598;2023-08-12T05:05:10;22.00;80.70
46139;DHT22;32398;49.112;8.598;2023-08-12T05:07:38;22.00;80.90
46139;DHT22;32398;49.112;8.598;2023-08-12T05:10:05;22.00;80.90
46139;DHT22;32398;49.112;8.598;2023-08-12T05:12:31;22.00;80.90
46139;DHT22;32398;49.112;8.598;2023-08-12T05:14:58;22.00;80.90
46139;DHT22;32398;49.112;8.598;2023-08-12T05:17:24;22.00;81.00
46139;DHT22;32398;49.112;8.598;2023-08-12T05:19:51;22.00;81.40
46139;DHT22;32398;49.112;8.598;2023-08-12T05:22:17;22.00;81.50
46139;DHT22;32398;49.112;8.598;2023-08-12T05:24:45;21.90;81.30
46139;DHT22;32398;49.112;8.598;2023-08-12T05:27:12;21.90;81.20
46139;DHT22;32398;49.112;8.598;2023-08-12T05:29:38;21.90;81.20
46139;DHT22;32398;49.112;8.598;2023-08-12T05:32:06;21.90;81.20
46139;DHT22;32398;49.112;8.598;2023-08-12T05:34:33;21.90;81.20
46139;DHT22;32398;49.112;8.598;2023-08-12T05:36:59;21.90;81.30
46139;DHT22;32398;49.112;8.598;2023-08-12T05:39:26;22.00;81.40
46139;DHT22;32398;49.112;8.598;2023-08-12T05:41:54;21.90;81.30
46139;DHT22;32398;49.112;8.598;2023-08-12T05:44:20;21.90;81.50
46139;DHT22;32398;49.112;8.598;2023-08-12T05:46:47;21.90;82.30
46139;DHT22;32398;49.112;8.598;2023-08-12T05:49:14;21.90;81.60
46139;DHT22;32398;49.112;8.598;2023-08-12T05:51:40;21.90;81.70
46139;DHT22;32398;49.112;8.598;2023-08-12T05:54:07;21.90;81.80
46139;DHT22;32398;49.112;8.598;2023-08-12T05:56:34;21.90;81.80
46139;DHT22;32398;49.112;8.598;2023-08-12T05:59:02;21.90;82.00
46139;DHT22;32398;49.112;8.598;2023-08-12T06:01:28;21.90;82.00
46139;DHT22;32398;49.112;8.598;2023-08-12T06:03:55;21.90;81.90
46139;DHT22;32398;49.112;8.598;2023-08-12T06:06:21;21.90;82.00
46139;DHT22;32398;49.112;8.598;2023-08-12T06:08:48;21.90;82.10
46139;DHT22;32398;49.112;8.598;2023-08-12T06:11:14;21.80;82.10
46139;DHT22;32398;49.112;8.598;2023-08-12T06:13:41;21.90;82.20
46139;DHT22;32398;49.112;8.598;2023-08-12T06:16:09;21.90;82.20
46139;DHT22;32398;49.112;8.598;2023-08-12T06:18:35;21.90;82.60
46139;DHT22;32398;49.112;8.598;2023-08-12T06:21:02;21.90;82.30
46139;DHT22;32398;49.112;8.598;2023-08-12T06:23:28;21.90;82.50
46139;DHT22;32398;49.112;8.598;2023-08-12T06:25:56;21.90;82.50
46139;DHT22;32398;49.112;8.598;2023-08-12T06:28:22;21.90;82.50
46139;DHT22;32398;49.112;8.598;2023-08-12T06:30:49;21.90;82.60
46139;DHT22;32398;49.112;8.598;2023-08-12T06:33:17;21.90;82.60
46139;DHT22;32398;49.112;8.598;2023-08-12T06:35:44;21.90;82.50
46139;DHT22;32398;49.112;8.598;2023-08-12T06:38:10;21.90;82.50
46139;DHT22;32398;49.112;8.598;2023-08-12T06:40:37;21.90;82.60
46139;DHT22;32398;49.112;8.598;2023-08-12T06:43:03;21.90;82.70
46139;DHT22;32398;49.112;8.598;2023-08-12T06:45:30;21.90;82.70
46139;DHT22;32398;49.112;8.598;2023-08-12T06:47:57;21.90;82.60
46139;DHT22;32398;49.112;8.598;2023-08-12T06:50:25;21.90;82.80
46139;DHT22;32398;49.112;8.598;2023-08-12T06:52:51;21.90;82.90
46139;DHT22;32398;49.112;8.598;2023-08-12T06:55:18;21.90;82.90
46139;DHT22;32398;49.112;8.598;2023-08-12T06:57:45;21.90;82.80
46139;DHT22;32398;49.112;8.598;2023-08-12T07:00:11;22.00;83.10
46139;DHT22;32398;49.112;8.598;2023-08-12T07:02:38;22.00;83.30
46139;DHT22;32398;49.112;8.598;2023-08-12T07:05:08;22.00;83.30
46139;DHT22;32398;49.112;8.598;2023-08-12T07:07:35;22.00;83.30
46139;DHT22;32398;49.112;8.598;2023-08-12T07:10:02;22.00;83.30
46139;DHT22;32398;49.112;8.598;2023-08-12T07:12:29;22.00;83.20
46139;DHT22;32398;49.112;8.598;2023-08-12T07:14:56;22.00;83.50
46139;DHT22;32398;49.112;8.598;2023-08-12T07:17:22;22.00;83.90
46139;DHT22;32398;49.112;8.598;2023-08-12T07:19:49;22.10;83.20
46139;DHT22;32398;49.112;8.598;2023-08-12T07:22:15;22.00;83.20
46139;DHT22;32398;49.112;8.598;2023-08-12T07:24:46;22.10;83.30
46139;DHT22;32398;49.112;8.598;2023-08-12T07:27:12;22.10;83.60
46139;DHT22;32398;49.112;8.598;2023-08-12T07:29:39;22.10;83.60
46139;DHT22;32398;49.112;8.598;2023-08-12T07:32:05;22.10;83.50
46139;DHT22;32398;49.112;8.598;2023-08-12T07:34:32;22.20;83.70
46139;DHT22;32398;49.112;8.598;2023-08-12T07:36:58;22.20;83.80
46139;DHT22;32398;49.112;8.598;2023-08-12T07:39:25;22.20;83.80
46139;DHT22;32398;49.112;8.598;2023-08-12T07:41:53;22.20;84.60
46139;DHT22;32398;49.112;8.598;2023-08-12T07:44:19;22.20;83.80
46139;DHT22;32398;49.112;8.598;2023-08-12T07:46:46;22.20;83.90
46139;DHT22;32398;49.112;8.598;2023-08-12T07:49:12;22.20;83.80
46139;DHT22;32398;49.112;8.598;2023-08-12T07:51:39;22.30;83.70
46139;DHT22;32398;49.112;8.598;2023-08-12T07:54:06;22.30;83.60
46139;DHT22;32398;49.112;8.598;2023-08-12T07:56:32;22.30;83.40
46139;DHT22;32398;49.112;8.598;2023-08-12T07:59:00;22.30;83.40
46139;DHT22;32398;49.112;8.598;2023-08-12T08:01:28;22.30;83.50
46139;DHT22;32398;49.112;8.598;2023-08-12T08:03:54;22.30;83.40
46139;DHT22;32398;49.112;8.598;2023-08-12T08:06:21;22.30;83.40
46139;DHT22;32398;49.112;8.598;2023-08-12T08:08:48;22.40;83.50
46139;DHT22;32398;49.112;8.598;2023-08-12T08:11:15;22.40;83.60
46139;DHT22;32398;49.112;8.598;2023-08-12T08:13:41;22.50;83.70
46139;DHT22;32398;49.112;8.598;2023-08-12T08:16:09;22.50;83.60
46139;DHT22;32398;49.112;8.598;2023-08-12T08:18:36;22.50;83.50
46139;DHT22;32398;49.112;8.598;2023-08-12T08:21:02;22.50;83.30
46139;DHT22;32398;49.112;8.598;2023-08-12T08:32:40;22.70;83.80
46139;DHT22;32398;49.112;8.598;2023-08-12T08:35:06;22.70;84.00
46139;DHT22;32398;49.112;8.598;2023-08-12T08:37:33;22.80;84.20
46139;DHT22;32398;49.112;8.598;2023-08-12T08:40:00;22.80;84.20
46139;DHT22;32398;49.112;8.598;2023-08-12T08:42:26;22.80;84.10
46139;DHT22;32398;49.112;8.598;2023-08-12T08:44:54;22.80;83.90
46139;DHT22;32398;49.112;8.598;2023-08-12T08:47:25;22.90;83.80
46139;DHT22;32398;49.112;8.598;2023-08-12T08:49:53;22.90;83.70
46139;DHT22;32398;49.112;8.598;2023-08-12T08:52:21;23.00;83.70
46139;DHT22;32398;49.112;8.598;2023-08-12T08:57:51;23.10;83.60
46139;DHT22;32398;49.112;8.598;2023-08-12T09:00:18;23.10;83.40
46139;DHT22;32398;49.112;8.598;2023-08-12T09:02:45;23.10;83.50
46139;DHT22;32398;49.112;8.598;2023-08-12T09:05:14;23.20;83.60
46139;DHT22;32398;49.112;8.598;2023-08-12T09:07:41;23.20;83.60
46139;DHT22;32398;49.112;8.598;2023-08-12T09:10:09;23.30;83.80
46139;DHT22;32398;49.112;8.598;2023-08-12T09:12:36;23.40;83.70
46139;DHT22;32398;49.112;8.598;2023-08-12T09:15:03;23.40;83.50
46139;DHT22;32398;49.112;8.598;2023-08-12T09:17:31;23.40;83.40
46139;DHT22;32398;49.112;8.598;2023-08-12T09:19:58;23.50;83.30
46139;DHT22;32398;49.112;8.598;2023-08-12T09:22:26;23.60;83.20
46139;DHT22;32398;49.112;8.598;2023-08-12T09:24:55;23.60;83.10
46139;DHT22;32398;49.112;8.598;2023-08-12T09:27:22;23.70;82.80
46139;DHT22;32398;49.112;8.598;2023-08-12T09:29:49;23.70;82.70
46139;DHT22;32398;49.112;8.598;2023-08-12T09:32:17;23.80;82.50
46139;DHT22;32398;49.112;8.598;2023-08-12T09:34:47;23.90;82.30
46139;DHT22;32398;49.112;8.598;2023-08-12T09:37:14;24.00;81.90
46139;DHT22;32398;49.112;8.598;2023-08-12T09:39:42;24.00;81.60
46139;DHT22;32398;49.112;8.598;2023-08-12T09:42:08;24.10;81.40
46139;DHT22;32398;49.112;8.598;2023-08-12T09:44:35;24.10;81.00
46139;DHT22;32398;49.112;8.598;2023-08-12T09:47:02;24.20;81.00
46139;DHT22;32398;49.112;8.598;2023-08-12T09:49:28;24.20;80.80
46139;DHT22;32398;49.112;8.598;2023-08-12T09:51:55;24.30;80.70
46139;DHT22;32398;49.112;8.598;2023-08-12T09:54:22;24.30;80.50
46139;DHT22;32398;49.112;8.598;2023-08-12T09:56:52;24.40;81.20
46139;DHT22;32398;49.112;8.598;2023-08-12T09:59:22;24.50;80.30
46139;DHT22;32398;49.112;8.598;2023-08-12T10:01:49;24.50;80.00
46139;DHT22;32398;49.112;8.598;2023-08-12T10:04:17;24.60;80.80
46139;DHT22;32398;49.112;8.598;2023-08-12T10:06:43;24.50;79.70
46139;DHT22;32398;49.112;8.598;2023-08-12T10:09:10;24.60;79.60
46139;DHT22;32398;49.112;8.598;2023-08-12T10:11:37;24.70;79.40
46139;DHT22;32398;49.112;8.598;2023-08-12T10:14:06;24.70;79.40
46139;DHT22;32398;49.112;8.598;2023-08-12T10:16:34;24.80;79.30
46139;DHT22;32398;49.112;8.598;2023-08-12T10:19:01;24.90;79.00
46139;DHT22;32398;49.112;8.598;2023-08-12T10:21:28;24.90;78.80
46139;DHT22;32398;49.112;8.598;2023-08-12T10:23:55;25.00;78.60
46139;DHT22;32398;49.112;8.598;2023-08-12T10:26:23;25.00;78.20
46139;DHT22;32398;49.112;8.598;2023-08-12T10:28:50;25.10;78.10
46139;DHT22;32398;49.112;8.598;2023-08-12T10:40:28;25.40;77.40
46139;DHT22;32398;49.112;8.598;2023-08-12T10:42:56;25.40;77.20
46139;DHT22;32398;49.112;8.598;2023-08-12T10:45:22;25.50;77.20
46139;DHT22;32398;49.112;8.598;2023-08-12T10:50:53;25.60;77.00
46139;DHT22;32398;49.112;8.598;2023-08-12T10:53:21;25.70;76.70
46139;DHT22;32398;49.112;8.598;2023-08-12T10:55:49;25.70;76.60
46139;DHT22;32398;49.112;8.598;2023-08-12T10:58:23;25.80;76.30
46139;DHT22;32398;49.112;8.598;2023-08-12T11:00:52;25.90;76.20
46139;DHT22;32398;49.112;8.598;2023-08-12T11:03:19;25.90;76.10
46139;DHT22;32398;49.112;8.598;2023-08-12T11:05:46;26.00;76.30
46139;DHT22;32398;49.112;8.598;2023-08-12T11:08:13;26.00;76.10
46139;DHT22;32398;49.112;8.598;2023-08-12T11:10:39;26.00;76.10
46139;DHT22;32398;49.112;8.598;2023-08-12T11:13:09;26.00;76.10
46139;DHT22;32398;49.112;8.598;2023-08-12T11:15:36;26.00;76.00
46139;DHT22;32398;49.112;8.598;2023-08-12T11:18:03;26.00;75.90
46139;DHT22;32398;49.112;8.598;2023-08-12T11:54:58;25.80;81.30
46139;DHT22;32398;49.112;8.598;2023-08-12T12:00:28;25.80;81.70
46139;DHT22;32398;49.112;8.598;2023-08-12T12:02:55;25.80;81.90
46139;DHT22;32398;49.112;8.598;2023-08-12T12:05:22;25.80;82.20
46139;DHT22;32398;49.112;8.598;2023-08-12T12:07:49;25.90;82.10
46139;DHT22;32398;49.112;8.598;2023-08-12T12:10:19;25.90;82.20
46139;DHT22;32398;49.112;8.598;2023-08-12T12:12:47;25.90;82.40
46139;DHT22;32398;49.112;8.598;2023-08-12T12:15:14;25.90;82.40
46139;DHT22;32398;49.112;8.598;2023-08-12T12:17:41;25.90;82.30
46139;DHT22;32398;49.112;8.598;2023-08-12T12:20:08;25.90;82.40
46139;DHT22;32398;49.112;8.598;2023-08-12T12:22:37;26.00;82.50
46139;DHT22;32398;49.112;8.598;2023-08-12T12:25:06;26.00;82.30
46139;DHT22;32398;49.112;8.598;2023-08-12T12:27:34;26.00;82.40
46139;DHT22;32398;49.112;8.598;2023-08-12T12:30:00;26.00;82.40
46139;DHT22;32398;49.112;8.598;2023-08-12T12:32:27;26.10;82.50
46139;DHT22;32398;49.112;8.598;2023-08-12T12:34:54;26.10;82.90
46139;DHT22;32398;49.112;8.598;2023-08-12T12:37:21;26.20;82.70
46139;DHT22;32398;49.112;8.598;2023-08-12T12:39:47;26.20;82.20
46139;DHT22;32398;49.112;8.598;2023-08-12T12:42:14;26.30;81.70
46139;DHT22;32398;49.112;8.598;2023-08-12T12:44:42;26.30;81.30
46139;DHT22;32398;49.112;8.598;2023-08-12T12:47:08;26.30;81.00
46139;DHT22;32398;49.112;8.598;2023-08-12T12:49:37;26.40;80.90
46139;DHT22;32398;49.112;8.598;2023-08-12T12:52:04;26.40;80.90
46139;DHT22;32398;49.112;8.598;2023-08-12T12:54:30;26.40;80.60
46139;DHT22;32398;49.112;8.598;2023-08-12T12:56:57;26.40;80.70
46139;DHT22;32398;49.112;8.598;2023-08-12T12:59:23;26.50;80.80
46139;DHT22;32398;49.112;8.598;2023-08-12T13:01:51;26.50;80.70
46139;DHT22;32398;49.112;8.598;2023-08-12T13:04:18;26.50;80.40
46139;DHT22;32398;49.112;8.598;2023-08-12T13:06:44;26.50;80.20
46139;DHT22;32398;49.112;8.598;2023-08-12T13:09:11;26.60;80.00
46139;DHT22;32398;49.112;8.598;2023-08-12T13:11:38;26.60;80.10
46139;DHT22;32398;49.112;8.598;2023-08-12T13:14:04;26.70;80.00
46139;DHT22;32398;49.112;8.598;2023-08-12T13:16:31;26.70;79.70
46139;DHT22;32398;49.112;8.598;2023-08-12T13:18:59;26.80;79.50
46139;DHT22;32398;49.112;8.598;2023-08-12T13:21:26;26.90;79.10
46139;DHT22;32398;49.112;8.598;2023-08-12T13:23:52;26.90;78.80
46139;DHT22;32398;49.112;8.598;2023-08-12T13:26:20;27.00;78.40
46139;DHT22;32398;49.112;8.598;2023-08-12T13:28:47;27.00;78.30
46139;DHT22;32398;49.112;8.598;2023-08-12T13:31:14;27.00;77.90
46139;DHT22;32398;49.112;8.598;2023-08-12T13:33:40;27.10;77.70
46139;DHT22;32398;49.112;8.598;2023-08-12T13:36:08;27.10;77.40
46139;DHT22;32398;49.112;8.598;2023-08-12T13:38:35;27.10;77.10
46139;DHT22;32398;49.112;8.598;2023-08-12T13:41:01;27.10;77.00
46139;DHT22;32398;49.112;8.598;2023-08-12T13:43:28;27.10;77.00
46139;DHT22;32398;49.112;8.598;2023-08-12T13:45:55;27.10;77.00
46139;DHT22;32398;49.112;8.598;2023-08-12T13:48:22;27.20;77.00
46139;DHT22;32398;49.112;8.598;2023-08-12T13:50:48;27.20;76.80
46139;DHT22;32398;49.112;8.598;2023-08-12T13:53:18;27.20;76.80
46139;DHT22;32398;49.112;8.598;2023-08-12T13:55:46;27.20;76.70
46139;DHT22;32398;49.112;8.598;2023-08-12T13:58:12;27.20;76.60
46139;DHT22;32398;49.112;8.598;2023-08-12T14:00:39;27.20;76.60
46139;DHT22;32398;49.112;8.598;2023-08-12T14:03:05;27.20;76.70
46139;DHT22;32398;49.112;8.598;2023-08-12T14:05:32;27.20;76.60
46139;DHT22;32398;49.112;8.598;2023-08-12T14:07:59;27.20;76.40
46139;DHT22;32398;49.112;8.598;2023-08-12T14:10:27;27.20;76.40
46139;DHT22;32398;49.112;8.598;2023-08-12T14:12:53;27.30;76.40
46139;DHT22;32398;49.112;8.598;2023-08-12T14:15:20;27.30;76.20
46139;DHT22;32398;49.112;8.598;2023-08-12T14:17:46;27.40;76.10
46139;DHT22;32398;49.112;8.598;2023-08-12T14:20:13;27.40;75.90
46139;DHT22;32398;49.112;8.598;2023-08-12T14:22:40;27.40;75.70
46139;DHT22;32398;49.112;8.598;2023-08-12T14:25:09;27.40;75.50
46139;DHT22;32398;49.112;8.598;2023-08-12T14:27:37;27.40;75.40
46139;DHT22;32398;49.112;8.598;2023-08-12T14:30:04;27.40;75.20
46139;DHT22;32398;49.112;8.598;2023-08-12T14:32:31;27.40;75.20
46139;DHT22;32398;49.112;8.598;2023-08-12T14:34:57;27.40;75.10
46139;DHT22;32398;49.112;8.598;2023-08-12T14:37:24;27.40;75.20
46139;DHT22;32398;49.112;8.598;2023-08-12T14:39:51;27.40;75.20
46139;DHT22;32398;49.112;8.598;2023-08-12T14:42:17;27.30;75.20
46139;DHT22;32398;49.112;8.598;2023-08-12T14:44:45;27.30;75.40
46139;DHT22;32398;49.112;8.598;2023-08-12T14:47:12;27.20;75.60
46139;DHT22;32398;49.112;8.598;2023-08-12T14:49:38;27.20;75.90
46139;DHT22;32398;49.112;8.598;2023-08-12T14:52:05;27.10;76.00
46139;DHT22;32398;49.112;8.598;2023-08-12T14:54:31;27.10;76.60
46139;DHT22;32398;49.112;8.598;2023-08-12T14:56:58;27.10;77.00
46139;DHT22;32398;49.112;8.598;2023-08-12T14:59:24;27.00;77.60
46139;DHT22;32398;49.112;8.598;2023-08-12T15:01:52;27.00;78.40
46139;DHT22;32398;49.112;8.598;2023-08-12T15:04:19;26.90;78.80
46139;DHT22;32398;49.112;8.598;2023-08-12T15:06:45;27.00;79.40
46139;DHT22;32398;49.112;8.598;2023-08-12T15:09:12;26.90;80.20
46139;DHT22;32398;49.112;8.598;2023-08-12T15:11:38;26.90;80.80
46139;DHT22;32398;49.112;8.598;2023-08-12T15:14:05;26.90;81.30
46139;DHT22;32398;49.112;8.598;2023-08-12T15:16:31;26.80;87.50
46139;DHT22;32398;49.112;8.598;2023-08-12T15:18:59;26.70;88.90
46139;DHT22;32398;49.112;8.598;2023-08-12T15:21:26;26.70;89.30
46139;DHT22;32398;49.112;8.598;2023-08-12T15:23:53;26.70;90.10
46139;DHT22;32398;49.112;8.598;2023-08-12T15:26:20;26.70;90.50
46139;DHT22;32398;49.112;8.598;2023-08-12T15:28:47;26.60;90.90
46139;DHT22;32398;49.112;8.598;2023-08-12T15:31:14;26.70;91.20
46139;DHT22;32398;49.112;8.598;2023-08-12T15:33:40;26.70;91.10
46139;DHT22;32398;49.112;8.598;2023-08-12T15:36:08;26.70;91.10
46139;DHT22;32398;49.112;8.598;2023-08-12T15:38:35;26.70;91.30
46139;DHT22;32398;49.112;8.598;2023-08-12T15:41:04;26.70;91.40
46139;DHT22;32398;49.112;8.598;2023-08-12T15:43:37;26.70;91.50
46139;DHT22;32398;49.112;8.598;2023-08-12T15:46:04;26.70;91.50
46139;DHT22;32398;49.112;8.598;2023-08-12T15:48:30;26.70;91.60
46139;DHT22;32398;49.112;8.598;2023-08-12T15:50:57;26.70;91.70
46139;DHT22;32398;49.112;8.598;2023-08-12T15:53:25;26.70;91.80
46139;DHT22;32398;49.112;8.598;2023-08-12T15:55:52;26.70;92.00
46139;DHT22;32398;49.112;8.598;2023-08-12T15:58:18;26.70;92.00
46139;DHT22;32398;49.112;8.598;2023-08-12T16:00:45;26.70;92.10
46139;DHT22;32398;49.112;8.598;2023-08-12T16:03:13;26.60;92.10
46139;DHT22;32398;49.112;8.598;2023-08-12T16:05:40;26.60;92.10
46139;DHT22;32398;49.112;8.598;2023-08-12T16:08:07;26.60;92.10
46139;DHT22;32398;49.112;8.598;2023-08-12T16:10:36;26.60;92.20
46139;DHT22;32398;49.112;8.598;2023-08-12T16:13:03;26.50;92.20
46139;DHT22;32398;49.112;8.598;2023-08-12T16:15:29;26.50;92.10
46139;DHT22;32398;49.112;8.598;2023-08-12T16:17:56;26.50;92.50
46139;DHT22;32398;49.112;8.598;2023-08-12T16:20:22;26.50;92.20
46139;DHT22;32398;49.112;8.598;2023-08-12T16:22:49;26.50;92.20
46139;DHT22;32398;49.112;8.598;2023-08-12T16:25:16;26.40;92.30
46139;DHT22;32398;49.112;8.598;2023-08-12T16:27:43;26.40;92.30
46139;DHT22;32398;49.112;8.598;2023-08-12T16:30:10;26.40;92.30